sensor_id;sensor_type;location;lat;lon;timestamp;pressure;altitude;pressure_sealevel;temperature;humidity
42621;BME280;28252;53.336;-6.298;2023-09-19T00:00:09;99570.88;;;23.60;100.00
42621;BME280;28252;53.336;-6.298;2023-09-19T00:00:45;99571.91;;;23.59;100.00
42621;BME280;28252;53.336;-6.298;2023-09-19T00:01:25;99565.66;;;23.59;100.00
42621;BME280;28252;53.336;-6.298;2023-09-19T00:02:05;99563.97;;;23.58;100.00
42621;BME280;28252;53.336;-6.298;2023-09-19T00:02:37;99563.16;;;23.57;100.00
42621;BME280;28252;53.336;-6.298;2023-09-19T00:03:13;99559.59;;;23.57;100.00
42621;BME280;28252;53.336;-6.298;2023-09-19T00:03:44;99564.19;;;23.56;100.00
42621;BME280;28252;53.336;-6.298;2023-09-19T00:04:15;99556.03;;;23.56;100.00
42621;BME280;28252;53.336;-6.298;2023-09-19T00:05:30;99565.25;;;23.55;100.00
42621;BME280;28252;53.336;-6.298;2023-09-19T00:06:09;99560.88;;;23.54;100.00
42621;BME280;28252;53.336;-6.298;2023-09-19T00:09:16;99556.50;;;23.53;100.00
42621;BME280;28252;53.336;-6.298;2023-09-19T00:09:52;99550.22;;;23.53;100.00
42621;BME280;28252;53.336;-6.298;2023-09-19T00:10:28;99561.06;;;23.53;100.00
42621;BME280;28252;53.336;-6.298;2023-09-19T00:11:07;99565.69;;;23.52;100.00
42621;BME280;28252;53.336;-6.298;2023-09-19T00:11:41;99573.84;;;23.52;100.00
42621;BME280;28252;53.336;-6.298;2023-09-19T00:12:14;99575.75;;;23.52;100.00
42621;BME280;28252;53.336;-6.298;2023-09-19T00:12:53;99580.31;;;23.51;100.00
42621;BME280;28252;53.336;-6.298;2023-09-19T00:13:32;99565.09;;;23.50;100.00
42621;BME280;28252;53.336;-6.298;2023-09-19T00:14:06;99573.25;;;23.50;100.00
42621;BME280;28252;53.336;-6.298;2023-09-19T00:14:43;99565.91;;;23.50;100.00
42621;BME280;28252;53.336;-6.298;2023-09-19T00:15:16;99567.81;;;23.50;100.00
42621;BME280;28252;53.336;-6.298;2023-09-19T00:15:50;99566.13;;;23.49;100.00
42621;BME280;28252;53.336;-6.298;2023-09-19T00:16:21;99567.81;;;23.50;100.00
42621;BME280;28252;53.336;-6.298;2023-09-19T00:17:00;99563.41;;;23.49;100.00
42621;BME280;28252;53.336;-6.298;2023-09-19T00:17:33;99569.91;;;23.48;100.00
42621;BME280;28252;53.336;-6.298;2023-09-19T00:18:10;99564.47;;;23.48;100.00
42621;BME280;28252;53.336;-6.298;2023-09-19T00:18:46;99575.34;;;23.48;100.00
42621;BME280;28252;53.336;-6.298;2023-09-19T00:19:24;99563.63;;;23.47;100.00
42621;BME280;28252;53.336;-6.298;2023-09-19T00:19:55;99561.97;;;23.46;100.00
42621;BME280;28252;53.336;-6.298;2023-09-19T00:20:28;99567.41;;;23.46;100.00
42621;BME280;28252;53.336;-6.298;2023-09-19T00:21:00;99570.13;;;23.46;100.00
42621;BME280;28252;53.336;-6.298;2023-09-19T00:21:37;99569.28;;;23.46;100.00
42621;BME280;28252;53.336;-6.298;2023-09-19T00:22:08;99567.63;;;23.45;100.00
42621;BME280;28252;53.336;-6.298;2023-09-19T00:22:44;99571.16;;;23.45;100.00
42621;BME280;28252;53.336;-6.298;2023-09-19T00:23:17;99570.34;;;23.45;100.00
42621;BME280;28252;53.336;-6.298;2023-09-19T00:23:52;99573.28;;;23.43;100.00
42621;BME280;28252;53.336;-6.298;2023-09-19T00:24:23;99571.38;;;23.44;100.00
42621;BME280;28252;53.336;-6.298;2023-09-19T00:25:00;99569.75;;;23.43;100.00
42621;BME280;28252;53.336;-6.298;2023-09-19T00:25:33;99571.38;;;23.44;100.00
42621;BME280;28252;53.336;-6.298;2023-09-19T00:26:10;99567.84;;;23.43;100.00
42621;BME280;28252;53.336;-6.298;2023-09-19T00:26:43;99564.31;;;23.43;100.00
42621;BME280;28252;53.336;-6.298;2023-09-19T00:27:20;99560.72;;;23.42;100.00
42621;BME280;28252;53.336;-6.298;2023-09-19T00:27:51;99559.91;;;23.42;100.00
42621;BME280;28252;53.336;-6.298;2023-09-19T00:28:22;99558.22;;;23.41;100.00
42621;BME280;28252;53.336;-6.298;2023-09-19T00:28:54;99559.09;;;23.41;100.00
42621;BME280;28252;53.336;-6.298;2023-09-19T00:29:25;99569.97;;;23.41;100.00
42621;BME280;28252;53.336;-6.298;2023-09-19T00:30:01;99577.25;;;23.41;100.00
42621;BME280;28252;53.336;-6.298;2023-09-19T00:30:36;99570.78;;;23.42;100.00
42621;BME280;28252;53.336;-6.298;2023-09-19T00:31:09;99566.38;;;23.41;100.00
42621;BME280;28252;53.336;-6.298;2023-09-19T00:31:40;99567.47;;;23.40;100.00
42621;BME280;28252;53.336;-6.298;2023-09-19T00:32:13;99572.88;;;23.40;100.00
42621;BME280;28252;53.336;-6.298;2023-09-19T00:32:46;99564.75;;;23.40;100.00
42621;BME280;28252;53.336;-6.298;2023-09-19T00:33:20;99564.94;;;23.38;100.00
42621;BME280;28252;53.336;-6.298;2023-09-19T00:33:54;99565.78;;;23.39;100.00
42621;BME280;28252;53.336;-6.298;2023-09-19T00:35:52;99566.00;;;23.37;100.00
42621;BME280;28252;53.336;-6.298;2023-09-19T00:36:24;99566.00;;;23.37;100.00
42621;BME280;28252;53.336;-6.298;2023-09-19T00:36:55;99568.94;;;23.36;100.00
42621;BME280;28252;53.336;-6.298;2023-09-19T00:37:26;99574.16;;;23.37;100.00
42621;BME280;28252;53.336;-6.298;2023-09-19T00:37:57;99575.22;;;23.36;100.00
42621;BME280;28252;53.336;-6.298;2023-09-19T00:38:30;99573.53;;;23.35;100.00
42621;BME280;28252;53.336;-6.298;2023-09-19T00:39:05;99568.94;;;23.36;100.00
42621;BME280;28252;53.336;-6.298;2023-09-19T00:39:42;99562.66;;;23.35;100.00
42621;BME280;28252;53.336;-6.298;2023-09-19T00:40:13;99570.00;;;23.35;100.00
42621;BME280;28252;53.336;-6.298;2023-09-19T00:40:49;99571.03;;;23.34;100.00
42621;BME280;28252;53.336;-6.298;2023-09-19T00:41:25;99558.50;;;23.33;100.00
42621;BME280;28252;53.336;-6.298;2023-09-19T00:42:01;99557.44;;;23.34;100.00
42621;BME280;28252;53.336;-6.298;2023-09-19T00:42:38;99568.31;;;23.34;100.00
42621;BME280;28252;53.336;-6.298;2023-09-19T00:43:11;99572.06;;;23.33;100.00
42621;BME280;28252;53.336;-6.298;2023-09-19T00:43:44;99567.72;;;23.31;100.00
42621;BME280;28252;53.336;-6.298;2023-09-19T00:44:25;99565.81;;;23.32;100.00
42621;BME280;28252;53.336;-6.298;2023-09-19T00:44:59;99562.28;;;23.31;100.00
42621;BME280;28252;53.336;-6.298;2023-09-19T00:45:33;99547.63;;;23.33;100.00
42621;BME280;28252;53.336;-6.298;2023-09-19T00:46:09;99556.84;;;23.31;100.00
42621;BME280;28252;53.336;-6.298;2023-09-19T00:46:40;99558.75;;;23.31;100.00
42621;BME280;28252;53.336;-6.298;2023-09-19T00:47:14;99559.56;;;23.31;100.00
42621;BME280;28252;53.336;-6.298;2023-09-19T00:47:49;99558.94;;;23.29;100.00
42621;BME280;28252;53.336;-6.298;2023-09-19T00:48:22;99559.56;;;23.31;100.00
42621;BME280;28252;53.336;-6.298;2023-09-19T00:48:53;99562.50;;;23.30;100.00
42621;BME280;28252;53.336;-6.298;2023-09-19T00:49:26;99561.66;;;23.29;100.00
42621;BME280;28252;53.336;-6.298;2023-09-19T00:49:58;99562.50;;;23.30;100.00
42621;BME280;28252;53.336;-6.298;2023-09-19T00:50:34;99560.81;;;23.29;100.00
42621;BME280;28252;53.336;-6.298;2023-09-19T00:51:05;99565.44;;;23.28;100.00
42621;BME280;28252;53.336;-6.298;2023-09-19T00:51:39;99561.88;;;23.28;100.00
42621;BME280;28252;53.336;-6.298;2023-09-19T00:52:16;99554.56;;;23.28;100.00
42621;BME280;28252;53.336;-6.298;2023-09-19T00:52:53;99555.59;;;23.27;100.00
42621;BME280;28252;53.336;-6.298;2023-09-19T00:53:28;99552.06;;;23.27;100.00
42621;BME280;28252;53.336;-6.298;2023-09-19T00:54:03;99563.75;;;23.27;100.00
42621;BME280;28252;53.336;-6.298;2023-09-19T00:54:37;99556.66;;;23.26;100.00
42621;BME280;28252;53.336;-6.298;2023-09-19T00:55:13;99561.03;;;23.27;100.00
42621;BME280;28252;53.336;-6.298;2023-09-19T00:55:51;99557.50;;;23.27;100.00
42621;BME280;28252;53.336;-6.298;2023-09-19T00:56:22;99553.94;;;23.26;100.00
42621;BME280;28252;53.336;-6.298;2023-09-19T00:56:56;99554.16;;;23.25;100.00
42621;BME280;28252;53.336;-6.298;2023-09-19T00:57:27;99546.22;;;23.23;100.00
42621;BME280;28252;53.336;-6.298;2023-09-19T00:58:00;99553.34;;;23.24;100.00
42621;BME280;28252;53.336;-6.298;2023-09-19T00:58:36;99555.19;;;23.24;100.00
42621;BME280;28252;53.336;-6.298;2023-09-19T00:59:10;99551.66;;;23.23;100.00
42621;BME280;28252;53.336;-6.298;2023-09-19T00:59:46;99551.66;;;23.23;100.00
42621;BME280;28252;53.336;-6.298;2023-09-19T01:00:22;99546.22;;;23.23;100.00
42621;BME280;28252;53.336;-6.298;2023-09-19T01:00:57;99557.09;;;23.23;100.00
42621;BME280;28252;53.336;-6.298;2023-09-19T01:01:28;99552.69;;;23.22;100.00
42621;BME280;28252;53.336;-6.298;2023-09-19T01:02:06;99550.84;;;23.23;100.00
42621;BME280;28252;53.336;-6.298;2023-09-19T01:02:37;99554.38;;;23.23;100.00
42621;BME280;28252;53.336;-6.298;2023-09-19T01:03:08;99548.34;;;23.21;100.00
42621;BME280;28252;53.336;-6.298;2023-09-19T01:03:46;99551.06;;;23.21;100.00
42621;BME280;28252;53.336;-6.298;2023-09-19T01:04:20;99552.94;;;23.21;100.00
42621;BME280;28252;53.336;-6.298;2023-09-19T01:04:52;99548.34;;;23.21;100.00
42621;BME280;28252;53.336;-6.298;2023-09-19T01:05:30;99549.38;;;23.20;100.00
42621;BME280;28252;53.336;-6.298;2023-09-19T01:07:20;99543.13;;;23.20;100.00
42621;BME280;28252;53.336;-6.298;2023-09-19T01:07:53;99546.66;;;23.20;100.00
42621;BME280;28252;53.336;-6.298;2023-09-19T01:08:29;99538.50;;;23.20;100.00
42621;BME280;28252;53.336;-6.298;2023-09-19T01:09:07;99539.59;;;23.19;100.00
42621;BME280;28252;53.336;-6.298;2023-09-19T01:09:39;99540.41;;;23.20;100.00
42621;BME280;28252;53.336;-6.298;2023-09-19T01:10:12;99538.72;;;23.19;100.00
42621;BME280;28252;53.336;-6.298;2023-09-19T01:10:51;99536.00;;;23.19;100.00
42621;BME280;28252;53.336;-6.298;2023-09-19T01:11:58;99536.22;;;23.17;100.00
42621;BME280;28252;53.336;-6.298;2023-09-19T01:13:39;99529.16;;;23.16;100.00
42621;BME280;28252;53.336;-6.298;2023-09-19T01:14:29;99529.16;;;23.16;100.00
42621;BME280;28252;53.336;-6.298;2023-09-19T01:15:12;99524.53;;;23.17;100.00
42621;BME280;28252;53.336;-6.298;2023-09-19T01:16:13;99521.00;;;23.16;100.00
42621;BME280;28252;53.336;-6.298;2023-09-19T01:17:27;99519.31;;;23.15;100.00
42621;BME280;28252;53.336;-6.298;2023-09-19T01:18:40;99520.41;;;23.14;100.00
42621;BME280;28252;53.336;-6.298;2023-09-19T01:21:05;99514.97;;;23.14;100.00
42621;BME280;28252;53.336;-6.298;2023-09-19T01:22:00;99518.72;;;23.13;100.00
42621;BME280;28252;53.336;-6.298;2023-09-19T01:24:16;99509.75;;;23.12;100.00
42621;BME280;28252;53.336;-6.298;2023-09-19T01:25:07;99500.75;;;23.12;100.00
42621;BME280;28252;53.336;-6.298;2023-09-19T01:25:51;99495.31;;;23.12;100.00
42621;BME280;28252;53.336;-6.298;2023-09-19T01:28:55;99486.56;;;23.10;100.00
42621;BME280;28252;53.336;-6.298;2023-09-19T01:29:46;99494.69;;;23.10;100.00
42621;BME280;28252;53.336;-6.298;2023-09-19T01:30:20;99486.56;;;23.10;100.00
42621;BME280;28252;53.336;-6.298;2023-09-19T01:30:59;99484.91;;;23.09;100.00
42621;BME280;28252;53.336;-6.298;2023-09-19T01:31:38;99484.06;;;23.08;100.00
42621;BME280;28252;53.336;-6.298;2023-09-19T01:32:13;99479.47;;;23.09;100.00
42621;BME280;28252;53.336;-6.298;2023-09-19T01:32:46;99479.47;;;23.09;100.00
42621;BME280;28252;53.336;-6.298;2023-09-19T01:33:19;99475.09;;;23.08;100.00
42621;BME280;28252;53.336;-6.298;2023-09-19T01:34:00;99472.38;;;23.08;100.00
42621;BME280;28252;53.336;-6.298;2023-09-19T01:34:44;99480.50;;;23.08;100.00
42621;BME280;28252;53.336;-6.298;2023-09-19T01:35:18;99476.13;;;23.07;100.00
42621;BME280;28252;53.336;-6.298;2023-09-19T01:35:49;99470.69;;;23.07;100.00
42621;BME280;28252;53.336;-6.298;2023-09-19T01:36:23;99466.13;;;23.07;100.00
42621;BME280;28252;53.336;-6.298;2023-09-19T01:36:57;99466.13;;;23.07;100.00
42621;BME280;28252;53.336;-6.298;2023-09-19T01:37:32;99469.88;;;23.06;100.00
42621;BME280;28252;53.336;-6.298;2023-09-19T01:38:03;99464.44;;;23.06;100.00
42621;BME280;28252;53.336;-6.298;2023-09-19T01:38:39;99458.19;;;23.06;100.00
42621;BME280;28252;53.336;-6.298;2023-09-19T01:39:12;99466.31;;;23.06;100.00
42621;BME280;28252;53.336;-6.298;2023-09-19T01:39:44;99455.47;;;23.06;100.00
42621;BME280;28252;53.336;-6.298;2023-09-19T01:40:21;99457.28;;;23.05;100.00
42621;BME280;28252;53.336;-6.298;2023-09-19T01:41:01;99451.03;;;23.05;100.00
42621;BME280;28252;53.336;-6.298;2023-09-19T01:41:45;99458.19;;;23.06;100.00
42621;BME280;28252;53.336;-6.298;2023-09-19T01:42:24;99451.03;;;23.05;100.00
42621;BME280;28252;53.336;-6.298;2023-09-19T01:43:43;99445.81;;;23.03;100.00
42621;BME280;28252;53.336;-6.298;2023-09-19T01:44:29;99443.97;;;23.04;100.00
42621;BME280;28252;53.336;-6.298;2023-09-19T01:46:09;99442.28;;;23.03;100.00
42621;BME280;28252;53.336;-6.298;2023-09-19T01:46:48;99437.69;;;23.03;100.00
42621;BME280;28252;53.336;-6.298;2023-09-19T01:47:22;99430.59;;;23.02;100.00
42621;BME280;28252;53.336;-6.298;2023-09-19T01:47:56;99428.72;;;23.03;100.00
42621;BME280;28252;53.336;-6.298;2023-09-19T01:48:41;99436.03;;;23.02;100.00
42621;BME280;28252;53.336;-6.298;2023-09-19T01:51:18;99427.03;;;23.02;100.00
42621;BME280;28252;53.336;-6.298;2023-09-19T01:52:08;99422.69;;;23.01;100.00
42621;BME280;28252;53.336;-6.298;2023-09-19T01:52:47;99421.81;;;23.00;100.00
42621;BME280;28252;53.336;-6.298;2023-09-19T01:53:30;99417.25;;;23.01;100.00
42621;BME280;28252;53.336;-6.298;2023-09-19T01:54:08;99419.09;;;23.00;100.00
42621;BME280;28252;53.336;-6.298;2023-09-19T01:54:51;99413.69;;;23.00;100.00
42621;BME280;28252;53.336;-6.298;2023-09-19T01:55:26;99412.03;;;22.99;100.00
42621;BME280;28252;53.336;-6.298;2023-09-19T01:55:59;99394.91;;;22.99;100.00
42621;BME280;28252;53.336;-6.298;2023-09-19T01:56:34;99397.63;;;22.99;100.00
42621;BME280;28252;53.336;-6.298;2023-09-19T01:57:09;99400.34;;;22.99;100.00
42621;BME280;28252;53.336;-6.298;2023-09-19T02:00:05;99395.97;;;22.98;100.00
42621;BME280;28252;53.336;-6.298;2023-09-19T02:00:43;99390.53;;;22.98;100.00
42621;BME280;28252;53.336;-6.298;2023-09-19T02:01:19;99381.56;;;22.97;100.00
42621;BME280;28252;53.336;-6.298;2023-09-19T02:01:51;99387.81;;;22.98;100.00
42621;BME280;28252;53.336;-6.298;2023-09-19T02:02:31;99383.41;;;22.97;100.00
42621;BME280;28252;53.336;-6.298;2023-09-19T02:03:03;99390.53;;;22.98;100.00
42621;BME280;28252;53.336;-6.298;2023-09-19T02:03:37;99383.41;;;22.97;100.00
42621;BME280;28252;53.336;-6.298;2023-09-19T02:04:09;99380.69;;;22.97;100.00
42621;BME280;28252;53.336;-6.298;2023-09-19T02:04:45;99381.78;;;22.96;100.00
42621;BME280;28252;53.336;-6.298;2023-09-19T02:05:22;99380.09;;;22.94;100.00
42621;BME280;28252;53.336;-6.298;2023-09-19T02:05:54;99380.09;;;22.94;100.00
42621;BME280;28252;53.336;-6.298;2023-09-19T02:06:30;99377.38;;;22.94;100.00
42621;BME280;28252;53.336;-6.298;2023-09-19T02:07:08;99380.09;;;22.94;100.00
42621;BME280;28252;53.336;-6.298;2023-09-19T02:07:39;99373.84;;;22.94;100.00
42621;BME280;28252;53.336;-6.298;2023-09-19T02:08:16;99375.50;;;22.95;100.00
42621;BME280;28252;53.336;-6.298;2023-09-19T02:08:48;99374.66;;;22.94;100.00
42621;BME280;28252;53.336;-6.298;2023-09-19T02:09:27;99366.53;;;22.94;100.00
42621;BME280;28252;53.336;-6.298;2023-09-19T02:09:58;99371.94;;;22.94;100.00
42621;BME280;28252;53.336;-6.298;2023-09-19T02:10:36;99374.66;;;22.94;100.00
42621;BME280;28252;53.336;-6.298;2023-09-19T02:11:11;99373.03;;;22.93;100.00
42621;BME280;28252;53.336;-6.298;2023-09-19T02:11:47;99370.31;;;22.93;100.00
42621;BME280;28252;53.336;-6.298;2023-09-19T02:12:23;99361.31;;;22.93;100.00
42621;BME280;28252;53.336;-6.298;2023-09-19T02:13:25;99358.00;;;22.91;100.00
42621;BME280;28252;53.336;-6.298;2023-09-19T02:13:58;99363.22;;;22.92;100.00
42621;BME280;28252;53.336;-6.298;2023-09-19T02:14:30;99366.13;;;22.91;100.00
42621;BME280;28252;53.336;-6.298;2023-09-19T02:15:03;99358.81;;;22.91;100.00
42621;BME280;28252;53.336;-6.298;2023-09-19T02:16:11;99358.81;;;22.91;100.00
42621;BME280;28252;53.336;-6.298;2023-09-19T02:16:47;99357.16;;;22.90;100.00
42621;BME280;28252;53.336;-6.298;2023-09-19T02:17:22;99353.38;;;22.91;100.00
42621;BME280;28252;53.336;-6.298;2023-09-19T02:17:59;99361.53;;;22.91;100.00
42621;BME280;28252;53.336;-6.298;2023-09-19T02:18:32;99351.75;;;22.90;100.00
42621;BME280;28252;53.336;-6.298;2023-09-19T02:19:11;99347.34;;;22.89;100.00
42621;BME280;28252;53.336;-6.298;2023-09-19T02:19:44;99341.91;;;22.89;100.00
42621;BME280;28252;53.336;-6.298;2023-09-19T02:20:15;99348.16;;;22.90;100.00
42621;BME280;28252;53.336;-6.298;2023-09-19T02:20:49;99343.81;;;22.89;100.00
42621;BME280;28252;53.336;-6.298;2023-09-19T02:21:24;99343.00;;;22.88;100.00
42621;BME280;28252;53.336;-6.298;2023-09-19T02:22:03;99339.22;;;22.89;100.00
42621;BME280;28252;53.336;-6.298;2023-09-19T02:22:38;99337.56;;;22.88;100.00
42621;BME280;28252;53.336;-6.298;2023-09-19T02:23:10;99343.81;;;22.89;100.00
42621;BME280;28252;53.336;-6.298;2023-09-19T02:23:45;99334.84;;;22.88;100.00
42621;BME280;28252;53.336;-6.298;2023-09-19T02:24:20;99335.88;;;22.87;100.00
42621;BME280;28252;53.336;-6.298;2023-09-19T02:25:02;99335.88;;;22.87;100.00
42621;BME280;28252;53.336;-6.298;2023-09-19T02:25:40;99331.28;;;22.88;100.00
42621;BME280;28252;53.336;-6.298;2023-09-19T02:26:15;99323.34;;;22.86;100.00
42621;BME280;28252;53.336;-6.298;2023-09-19T02:26:47;99329.63;;;22.87;100.00
42621;BME280;28252;53.336;-6.298;2023-09-19T02:27:21;99323.34;;;22.86;100.00
42621;BME280;28252;53.336;-6.298;2023-09-19T02:27:52;99317.91;;;22.86;100.00
42621;BME280;28252;53.336;-6.298;2023-09-19T02:28:33;99317.91;;;22.86;100.00
42621;BME280;28252;53.336;-6.298;2023-09-19T02:29:07;99312.50;;;22.86;100.00
42621;BME280;28252;53.336;-6.298;2023-09-19T02:29:40;99304.34;;;22.86;100.00
42621;BME280;28252;53.336;-6.298;2023-09-19T02:30:11;99312.50;;;22.86;100.00
42621;BME280;28252;53.336;-6.298;2023-09-19T02:30:43;99308.13;;;22.85;100.00
42621;BME280;28252;53.336;-6.298;2023-09-19T02:31:18;99298.91;;;22.86;100.00
42621;BME280;28252;53.336;-6.298;2023-09-19T02:31:49;99300.00;;;22.85;100.00
42621;BME280;28252;53.336;-6.298;2023-09-19T02:32:23;99297.50;;;22.84;100.00
42621;BME280;28252;53.336;-6.298;2023-09-19T02:32:56;99297.28;;;22.85;100.00
42621;BME280;28252;53.336;-6.298;2023-09-19T02:33:29;99290.19;;;22.84;100.00
42621;BME280;28252;53.336;-6.298;2023-09-19T02:34:03;99287.47;;;22.84;100.00
42621;BME280;28252;53.336;-6.298;2023-09-19T02:34:39;99292.06;;;22.84;100.00
42621;BME280;28252;53.336;-6.298;2023-09-19T02:35:14;99286.84;;;22.82;100.00
42621;BME280;28252;53.336;-6.298;2023-09-19T02:35:47;99278.50;;;22.84;100.00
42621;BME280;28252;53.336;-6.298;2023-09-19T02:36:18;99275.78;;;22.84;100.00
42621;BME280;28252;53.336;-6.298;2023-09-19T02:38:12;99270.56;;;22.82;100.00
42621;BME280;28252;53.336;-6.298;2023-09-19T02:38:49;99277.91;;;22.82;100.00
42621;BME280;28252;53.336;-6.298;2023-09-19T02:39:24;99278.72;;;22.82;100.00
42621;BME280;28252;53.336;-6.298;2023-09-19T02:39:57;99271.59;;;22.81;100.00
42621;BME280;28252;53.336;-6.298;2023-09-19T02:40:28;99267.84;;;22.82;100.00
42621;BME280;28252;53.336;-6.298;2023-09-19T02:41:02;99273.28;;;22.82;100.00
42621;BME280;28252;53.336;-6.298;2023-09-19T02:41:36;99271.59;;;22.81;100.00
42621;BME280;28252;53.336;-6.298;2023-09-19T02:42:09;99270.78;;;22.81;100.00
42621;BME280;28252;53.336;-6.298;2023-09-19T02:42:42;99269.75;;;22.82;100.00
42621;BME280;28252;53.336;-6.298;2023-09-19T02:43:22;99264.53;;;22.80;100.00
42621;BME280;28252;53.336;-6.298;2023-09-19T02:43:56;99265.34;;;22.81;100.00
42621;BME280;28252;53.336;-6.298;2023-09-19T02:44:29;99264.53;;;22.80;100.00
42621;BME280;28252;53.336;-6.298;2023-09-19T02:45:04;99256.41;;;22.80;100.00
42621;BME280;28252;53.336;-6.298;2023-09-19T02:45:37;99253.69;;;22.80;100.00
42621;BME280;28252;53.336;-6.298;2023-09-19T02:46:08;99253.69;;;22.80;100.00
42621;BME280;28252;53.336;-6.298;2023-09-19T02:46:41;99253.69;;;22.80;100.00
42621;BME280;28252;53.336;-6.298;2023-09-19T02:47:15;99240.31;;;22.79;100.00
42621;BME280;28252;53.336;-6.298;2023-09-19T02:47:51;99250.13;;;22.80;100.00
42621;BME280;28252;53.336;-6.298;2023-09-19T02:48:22;99239.47;;;22.78;100.00
42621;BME280;28252;53.336;-6.298;2023-09-19T02:49:00;99242.81;;;22.80;100.00
42621;BME280;28252;53.336;-6.298;2023-09-19T02:49:33;99240.31;;;22.79;100.00
42621;BME280;28252;53.336;-6.298;2023-09-19T02:50:07;99236.75;;;22.78;100.00
42621;BME280;28252;53.336;-6.298;2023-09-19T02:50:40;99228.63;;;22.78;100.00
42621;BME280;28252;53.336;-6.298;2023-09-19T02:51:11;99224.25;;;22.77;100.00
42621;BME280;28252;53.336;-6.298;2023-09-19T02:51:45;99234.03;;;22.78;100.00
42621;BME280;28252;53.336;-6.298;2023-09-19T02:52:18;99221.53;;;22.77;100.00
42621;BME280;28252;53.336;-6.298;2023-09-19T02:52:50;99220.72;;;22.77;100.00
42621;BME280;28252;53.336;-6.298;2023-09-19T02:53:24;99224.25;;;22.77;100.00
42621;BME280;28252;53.336;-6.298;2023-09-19T02:53:54;99210.69;;;22.77;100.00
42621;BME280;28252;53.336;-6.298;2023-09-19T02:54:28;99216.13;;;22.77;100.00
42621;BME280;28252;53.336;-6.298;2023-09-19T02:55:06;99210.69;;;22.77;100.00
42621;BME280;28252;53.336;-6.298;2023-09-19T02:55:40;99206.31;;;22.76;100.00
42621;BME280;28252;53.336;-6.298;2023-09-19T02:56:13;99200.88;;;22.76;100.00
42621;BME280;28252;53.336;-6.298;2023-09-19T02:56:44;99214.44;;;22.76;100.00
42621;BME280;28252;53.336;-6.298;2023-09-19T02:57:17;99205.47;;;22.75;100.00
42621;BME280;28252;53.336;-6.298;2023-09-19T02:57:53;99198.16;;;22.76;100.00
42621;BME280;28252;53.336;-6.298;2023-09-19T02:58:27;99201.94;;;22.75;100.00
42621;BME280;28252;53.336;-6.298;2023-09-19T02:59:01;99196.53;;;22.75;100.00
42621;BME280;28252;53.336;-6.298;2023-09-19T02:59:34;99197.34;;;22.75;100.00
42621;BME280;28252;53.336;-6.298;2023-09-19T03:00:13;99185.66;;;22.75;100.00
42621;BME280;28252;53.336;-6.298;2023-09-19T03:00:44;99192.94;;;22.74;100.00
42621;BME280;28252;53.336;-6.298;2023-09-19T03:01:18;99186.69;;;22.74;100.00
42621;BME280;28252;53.336;-6.298;2023-09-19T03:01:52;99178.56;;;22.74;100.00
42621;BME280;28252;53.336;-6.298;2023-09-19T03:02:29;99181.28;;;22.74;100.00
42621;BME280;28252;53.336;-6.298;2023-09-19T03:03:06;99184.00;;;22.74;100.00
42621;BME280;28252;53.336;-6.298;2023-09-19T03:03:38;99175.84;;;22.74;100.00
42621;BME280;28252;53.336;-6.298;2023-09-19T03:04:10;99179.59;;;22.73;100.00
42621;BME280;28252;53.336;-6.298;2023-09-19T03:04:48;99178.56;;;22.74;100.00
42621;BME280;28252;53.336;-6.298;2023-09-19T03:05:22;99165.00;;;22.74;100.00
42621;BME280;28252;53.336;-6.298;2023-09-19T03:05:59;99167.72;;;22.74;100.00
42621;BME280;28252;53.336;-6.298;2023-09-19T03:06:35;99166.03;;;22.73;100.00
42621;BME280;28252;53.336;-6.298;2023-09-19T03:07:09;99164.41;;;22.72;100.00
42621;BME280;28252;53.336;-6.298;2023-09-19T03:07:48;99155.19;;;22.73;100.00
42621;BME280;28252;53.336;-6.298;2023-09-19T03:11:05;99148.09;;;22.72;100.00
42621;BME280;28252;53.336;-6.298;2023-09-19T03:11:38;99150.81;;;22.72;100.00
42621;BME280;28252;53.336;-6.298;2023-09-19T03:12:11;99143.72;;;22.71;100.00
42621;BME280;28252;53.336;-6.298;2023-09-19T03:12:44;99134.53;;;22.72;100.00
42621;BME280;28252;53.336;-6.298;2023-09-19T03:13:21;99141.00;;;22.71;100.00
42621;BME280;28252;53.336;-6.298;2023-09-19T03:13:57;99130.16;;;22.71;100.00
42621;BME280;28252;53.336;-6.298;2023-09-19T03:14:31;99132.88;;;22.71;100.00
42621;BME280;28252;53.336;-6.298;2023-09-19T03:15:07;99135.56;;;22.71;100.00
42621;BME280;28252;53.336;-6.298;2023-09-19T03:15:46;99131.22;;;22.70;100.00
42621;BME280;28252;53.336;-6.298;2023-09-19T03:16:20;99131.22;;;22.70;100.00
42621;BME280;28252;53.336;-6.298;2023-09-19T03:16:57;99123.91;;;22.70;100.00
42621;BME280;28252;53.336;-6.298;2023-09-19T03:17:28;99127.66;;;22.69;100.00
42621;BME280;28252;53.336;-6.298;2023-09-19T03:17:59;99121.41;;;22.69;100.00
42621;BME280;28252;53.336;-6.298;2023-09-19T03:18:30;99116.81;;;22.69;100.00
42621;BME280;28252;53.336;-6.298;2023-09-19T03:19:04;99121.41;;;22.69;100.00
42621;BME280;28252;53.336;-6.298;2023-09-19T03:19:39;99117.03;;;22.68;100.00
42621;BME280;28252;53.336;-6.298;2023-09-19T03:20:15;99110.56;;;22.69;100.00
42621;BME280;28252;53.336;-6.298;2023-09-19T03:20:54;99110.56;;;22.69;100.00
42621;BME280;28252;53.336;-6.298;2023-09-19T03:21:31;99109.75;;;22.68;100.00
42621;BME280;28252;53.336;-6.298;2023-09-19T03:22:09;99098.03;;;22.68;100.00
42621;BME280;28252;53.336;-6.298;2023-09-19T03:22:45;99105.34;;;22.67;100.00
42621;BME280;28252;53.336;-6.298;2023-09-19T03:23:20;99096.38;;;22.67;100.00
42621;BME280;28252;53.336;-6.298;2023-09-19T03:23:51;99102.63;;;22.67;100.00
42621;BME280;28252;53.336;-6.298;2023-09-19T03:24:28;99099.09;;;22.67;100.00
42621;BME280;28252;53.336;-6.298;2023-09-19T03:25:03;99090.97;;;22.67;100.00
42621;BME280;28252;53.336;-6.298;2023-09-19T03:25:39;99082.81;;;22.67;100.00
42621;BME280;28252;53.336;-6.298;2023-09-19T03:26:13;99083.88;;;22.66;100.00
42621;BME280;28252;53.336;-6.298;2023-09-19T03:26:49;99076.56;;;22.66;100.00
42621;BME280;28252;53.336;-6.298;2023-09-19T03:27:25;99071.97;;;22.67;100.00